sensor_id;sensor_type;location;lat;lon;timestamp;pressure;altitude;pressure_sealevel;temperature;humidity
78016;BME280;67223;51.102;5.882;2023-02-15T00:01:29;102752.13;;;14.03;63.75
78016;BME280;67223;51.102;5.882;2023-02-15T00:03:54;102745.03;;;14.02;63.29
78016;BME280;67223;51.102;5.882;2023-02-15T00:06:19;102745.13;;;14.00;63.63
78016;BME280;67223;51.102;5.882;2023-02-15T00:08:45;102745.25;;;13.99;63.85
78016;BME280;67223;51.102;5.882;2023-02-15T00:11:13;102738.16;;;13.98;63.59
78016;BME280;67223;51.102;5.882;2023-02-15T00:13:39;102739.09;;;13.97;63.78
78016;BME280;67223;51.102;5.882;2023-02-15T00:16:11;102745.44;;;13.96;63.78
78016;BME280;67223;51.102;5.882;2023-02-15T00:18:40;102743.69;;;13.95;64.05
78016;BME280;67223;51.102;5.882;2023-02-15T00:21:09;102731.25;;;13.94;63.57
78016;BME280;67223;51.102;5.882;2023-02-15T00:23:35;102737.59;;;13.93;63.83
78016;BME280;67223;51.102;5.882;2023-02-15T00:26:11;102727.81;;;13.92;63.48
78016;BME280;67223;51.102;5.882;2023-02-15T00:28:37;102735.94;;;13.90;63.44
78016;BME280;67223;51.102;5.882;2023-02-15T00:31:07;102739.63;;;13.89;63.45
78016;BME280;67223;51.102;5.882;2023-02-15T00:33:33;102737.03;;;13.88;63.23
78016;BME280;67223;51.102;5.882;2023-02-15T00:35:59;102730.88;;;13.86;63.65
78016;BME280;67223;51.102;5.882;2023-02-15T00:38:27;102737.97;;;13.87;63.30
78016;BME280;67223;51.102;5.882;2023-02-15T00:40:58;102731.88;;;13.85;63.77
78016;BME280;67223;51.102;5.882;2023-02-15T00:43:24;102732.81;;;13.84;63.44
78016;BME280;67223;51.102;5.882;2023-02-15T00:45:50;102730.22;;;13.82;63.47
78016;BME280;67223;51.102;5.882;2023-02-15T00:48:16;102724.06;;;13.80;63.33
78016;BME280;67223;51.102;5.882;2023-02-15T00:50:44;102719.69;;;13.79;63.46
78016;BME280;67223;51.102;5.882;2023-02-15T00:53:10;102722.47;;;13.77;62.99
78016;BME280;67223;51.102;5.882;2023-02-15T00:55:35;102718.06;;;13.76;63.41
78016;BME280;67223;51.102;5.882;2023-02-15T00:58:00;102729.66;;;13.77;63.68
78016;BME280;67223;51.102;5.882;2023-02-15T01:00:26;102720.81;;;13.75;63.44
78016;BME280;67223;51.102;5.882;2023-02-15T01:02:51;102714.63;;;13.74;64.05
78016;BME280;67223;51.102;5.882;2023-02-15T01:05:17;102717.50;;;13.71;63.59
78016;BME280;67223;51.102;5.882;2023-02-15T01:07:42;102713.06;;;13.70;63.29
78016;BME280;67223;51.102;5.882;2023-02-15T01:10:08;102714.06;;;13.69;63.47
78016;BME280;67223;51.102;5.882;2023-02-15T01:12:34;102708.78;;;13.68;63.52
78016;BME280;67223;51.102;5.882;2023-02-15T01:14:59;102712.41;;;13.67;63.17
78016;BME280;67223;51.102;5.882;2023-02-15T01:17:25;102709.81;;;13.65;63.45
78016;BME280;67223;51.102;5.882;2023-02-15T01:19:50;102711.56;;;13.66;63.61
78016;BME280;67223;51.102;5.882;2023-02-15T01:22:17;102702.75;;;13.64;63.40
78016;BME280;67223;51.102;5.882;2023-02-15T01:24:42;102705.53;;;13.63;63.24
78016;BME280;67223;51.102;5.882;2023-02-15T01:27:08;102703.88;;;13.60;63.17
78016;BME280;67223;51.102;5.882;2023-02-15T01:29:33;102698.53;;;13.60;63.78
78016;BME280;67223;51.102;5.882;2023-02-15T01:31:59;102700.38;;;13.60;63.00
78016;BME280;67223;51.102;5.882;2023-02-15T01:34:24;102694.13;;;13.59;63.19
78016;BME280;67223;51.102;5.882;2023-02-15T01:36:49;102696.03;;;13.57;63.37
78016;BME280;67223;51.102;5.882;2023-02-15T01:39:15;102688.94;;;13.56;63.07
78016;BME280;67223;51.102;5.882;2023-02-15T01:41:40;102684.53;;;13.55;63.54
78016;BME280;67223;51.102;5.882;2023-02-15T01:47:16;102690.97;;;13.53;63.05
78016;BME280;67223;51.102;5.882;2023-02-15T01:49:44;102681.19;;;13.52;63.00
78016;BME280;67223;51.102;5.882;2023-02-15T01:52:14;102681.28;;;13.50;63.26
78016;BME280;67223;51.102;5.882;2023-02-15T01:54:44;102677.84;;;13.48;63.17
78016;BME280;67223;51.102;5.882;2023-02-15T01:57:15;102671.72;;;13.46;63.06
78016;BME280;67223;51.102;5.882;2023-02-15T01:59:46;102672.56;;;13.47;63.14
78016;BME280;67223;51.102;5.882;2023-02-15T02:02:16;102669.97;;;13.45;62.90
78016;BME280;67223;51.102;5.882;2023-02-15T02:04:48;102670.97;;;13.44;63.03
78016;BME280;67223;51.102;5.882;2023-02-15T02:07:16;102669.22;;;13.43;63.34
78016;BME280;67223;51.102;5.882;2023-02-15T02:09:43;102664.81;;;13.42;63.00
78016;BME280;67223;51.102;5.882;2023-02-15T02:12:09;102655.91;;;13.42;62.89
78016;BME280;67223;51.102;5.882;2023-02-15T02:14:36;102656.00;;;13.40;62.78
78016;BME280;67223;51.102;5.882;2023-02-15T02:23:08;102658.03;;;13.36;62.77
78016;BME280;67223;51.102;5.882;2023-02-15T02:26:10;102649.97;;;13.36;62.84
78016;BME280;67223;51.102;5.882;2023-02-15T02:29:26;102645.69;;;13.34;62.81
78016;BME280;67223;51.102;5.882;2023-02-15T02:35:00;102639.53;;;13.32;62.97
78016;BME280;67223;51.102;5.882;2023-02-15T02:37:34;102635.25;;;13.29;62.90
78016;BME280;67223;51.102;5.882;2023-02-15T02:42:40;102624.59;;;13.28;62.94
78016;BME280;67223;51.102;5.882;2023-02-15T02:45:13;102620.19;;;13.27;63.09
78016;BME280;67223;51.102;5.882;2023-02-15T02:47:48;102627.38;;;13.26;62.98
78016;BME280;67223;51.102;5.882;2023-02-15T02:50:20;102617.72;;;13.24;62.65
78016;BME280;67223;51.102;5.882;2023-02-15T02:52:51;102622.22;;;13.23;62.57
78016;BME280;67223;51.102;5.882;2023-02-15T02:55:29;102624.03;;;13.23;62.79
78016;BME280;67223;51.102;5.882;2023-02-15T02:57:59;102621.44;;;13.21;62.59
78016;BME280;67223;51.102;5.882;2023-02-15T03:00:29;102614.25;;;13.22;62.77
78016;BME280;67223;51.102;5.882;2023-02-15T03:03:03;102618.75;;;13.21;62.94
78016;BME280;67223;51.102;5.882;2023-02-15T03:05:34;102609.97;;;13.19;62.73
78016;BME280;67223;51.102;5.882;2023-02-15T03:08:03;102615.41;;;13.18;62.87
78016;BME280;67223;51.102;5.882;2023-02-15T03:10:35;102619.91;;;13.17;62.57
78016;BME280;67223;51.102;5.882;2023-02-15T03:13:02;102619.06;;;13.17;62.75
78016;BME280;67223;51.102;5.882;2023-02-15T03:15:37;102619.13;;;13.15;62.90
78016;BME280;67223;51.102;5.882;2023-02-15T03:18:26;102613.03;;;13.13;62.84
78016;BME280;67223;51.102;5.882;2023-02-15T03:20:55;102619.34;;;13.12;62.77
78016;BME280;67223;51.102;5.882;2023-02-15T03:23:24;102605.06;;;13.12;62.93
78016;BME280;67223;51.102;5.882;2023-02-15T03:25:57;102605.06;;;13.12;62.17
78016;BME280;67223;51.102;5.882;2023-02-15T03:28:30;102608.66;;;13.11;62.62
78016;BME280;67223;51.102;5.882;2023-02-15T03:31:00;102607.81;;;13.10;62.24
78016;BME280;67223;51.102;5.882;2023-02-15T03:33:28;102606.97;;;13.10;62.43
78016;BME280;67223;51.102;5.882;2023-02-15T03:36:01;102607.94;;;13.09;62.68
78016;BME280;67223;51.102;5.882;2023-02-15T03:38:59;102606.19;;;13.08;62.38
78016;BME280;67223;51.102;5.882;2023-02-15T03:41:29;102602.75;;;13.06;62.92
78016;BME280;67223;51.102;5.882;2023-02-15T03:44:19;102591.16;;;13.05;62.64
78016;BME280;67223;51.102;5.882;2023-02-15T03:46:54;102588.59;;;13.04;62.31
78016;BME280;67223;51.102;5.882;2023-02-15T03:49:46;102579.75;;;13.02;62.16
78016;BME280;67223;51.102;5.882;2023-02-15T03:52:09;102590.50;;;13.02;62.43
78016;BME280;67223;51.102;5.882;2023-02-15T03:54:37;102577.16;;;13.00;62.63
78016;BME280;67223;51.102;5.882;2023-02-15T03:57:29;102575.47;;;12.99;62.35
78016;BME280;67223;51.102;5.882;2023-02-15T04:00:17;102580.84;;;12.99;62.42
78016;BME280;67223;51.102;5.882;2023-02-15T04:05:33;102574.78;;;12.95;62.50
78016;BME280;67223;51.102;5.882;2023-02-15T04:07:59;102569.41;;;12.95;62.05
78016;BME280;67223;51.102;5.882;2023-02-15T04:10:24;102573.09;;;12.94;61.89
78016;BME280;67223;51.102;5.882;2023-02-15T04:13:08;102583.03;;;12.92;62.30
78016;BME280;67223;51.102;5.882;2023-02-15T04:15:33;102580.34;;;12.92;62.66
78016;BME280;67223;51.102;5.882;2023-02-15T04:18:17;102580.34;;;12.92;62.69
78016;BME280;67223;51.102;5.882;2023-02-15T04:20:46;102581.31;;;12.91;62.61
78016;BME280;67223;51.102;5.882;2023-02-15T04:23:30;102585.94;;;12.89;62.03
78016;BME280;67223;51.102;5.882;2023-02-15T04:26:14;102575.19;;;12.89;62.03
78016;BME280;67223;51.102;5.882;2023-02-15T04:28:39;102573.47;;;12.88;62.31
78016;BME280;67223;51.102;5.882;2023-02-15T04:31:05;102569.91;;;12.88;62.34
78016;BME280;67223;51.102;5.882;2023-02-15T04:33:30;102572.69;;;12.86;62.00
78016;BME280;67223;51.102;5.882;2023-02-15T04:35:56;102569.16;;;12.86;62.68
78016;BME280;67223;51.102;5.882;2023-02-15T04:38:21;102575.50;;;12.85;62.27
78016;BME280;67223;51.102;5.882;2023-02-15T04:40:51;102575.50;;;12.85;62.29
78016;BME280;67223;51.102;5.882;2023-02-15T04:43:18;102585.34;;;12.84;62.44
78016;BME280;67223;51.102;5.882;2023-02-15T04:45:50;102580.06;;;12.83;62.23
78016;BME280;67223;51.102;5.882;2023-02-15T04:48:16;102577.47;;;12.81;62.68
78016;BME280;67223;51.102;5.882;2023-02-15T04:50:43;102576.63;;;12.81;62.37
78016;BME280;67223;51.102;5.882;2023-02-15T04:53:09;102567.72;;;12.80;61.86
78016;BME280;67223;51.102;5.882;2023-02-15T04:55:34;102574.06;;;12.79;62.01
78016;BME280;67223;51.102;5.882;2023-02-15T04:58:00;102564.28;;;12.78;62.65
78016;BME280;67223;51.102;5.882;2023-02-15T05:00:25;102561.59;;;12.78;61.91
78016;BME280;67223;51.102;5.882;2023-02-15T05:02:51;102558.16;;;12.76;62.53
78016;BME280;67223;51.102;5.882;2023-02-15T05:05:16;102559.88;;;12.77;62.40
78016;BME280;67223;51.102;5.882;2023-02-15T05:07:42;102557.28;;;12.76;62.33
78016;BME280;67223;51.102;5.882;2023-02-15T05:10:08;102554.72;;;12.74;61.68
78016;BME280;67223;51.102;5.882;2023-02-15T05:12:33;102552.91;;;12.75;62.12
78016;BME280;67223;51.102;5.882;2023-02-15T05:14:59;102548.50;;;12.74;62.36
78016;BME280;67223;51.102;5.882;2023-02-15T05:17:24;102540.53;;;12.72;61.86
78016;BME280;67223;51.102;5.882;2023-02-15T05:19:49;102544.16;;;12.71;62.01
78016;BME280;67223;51.102;5.882;2023-02-15T05:22:15;102541.50;;;12.71;62.66
78016;BME280;67223;51.102;5.882;2023-02-15T05:24:40;102539.75;;;12.70;62.34
78016;BME280;67223;51.102;5.882;2023-02-15T05:27:24;102538.06;;;12.69;62.20
78016;BME280;67223;51.102;5.882;2023-02-15T05:30:08;102539.88;;;12.69;62.18
78016;BME280;67223;51.102;5.882;2023-02-15T05:32:37;102547.06;;;12.68;61.71
78016;BME280;67223;51.102;5.882;2023-02-15T05:35:04;102548.97;;;12.66;62.04
78016;BME280;67223;51.102;5.882;2023-02-15T05:37:29;102546.41;;;12.65;61.62
78016;BME280;67223;51.102;5.882;2023-02-15T05:39:54;102549.91;;;12.65;62.10
78016;BME280;67223;51.102;5.882;2023-02-15T05:42:20;102554.44;;;12.65;61.76
78016;BME280;67223;51.102;5.882;2023-02-15T05:44:45;102547.34;;;12.64;62.34
78016;BME280;67223;51.102;5.882;2023-02-15T05:47:10;102557.19;;;12.63;61.91
78016;BME280;67223;51.102;5.882;2023-02-15T05:49:36;102552.78;;;12.62;61.71
78016;BME280;67223;51.102;5.882;2023-02-15T05:52:02;102546.47;;;12.63;61.49
78016;BME280;67223;51.102;5.882;2023-02-15T05:54:28;102550.13;;;12.62;62.24
78016;BME280;67223;51.102;5.882;2023-02-15T05:56:54;102548.38;;;12.61;62.36
78016;BME280;67223;51.102;5.882;2023-02-15T05:59:19;102554.63;;;12.62;62.35
78016;BME280;67223;51.102;5.882;2023-02-15T06:01:45;102542.16;;;12.61;61.53
78016;BME280;67223;51.102;5.882;2023-02-15T06:04:10;102554.63;;;12.62;61.75
78016;BME280;67223;51.102;5.882;2023-02-15T06:06:35;102559.97;;;12.62;62.03
78016;BME280;67223;51.102;5.882;2023-02-15T06:09:01;102555.47;;;12.62;62.52
78016;BME280;67223;51.102;5.882;2023-02-15T06:11:26;102557.28;;;12.62;61.88
78016;BME280;67223;51.102;5.882;2023-02-15T06:13:52;102563.50;;;12.62;62.23
78016;BME280;67223;51.102;5.882;2023-02-15T06:16:17;102558.16;;;12.62;62.33
78016;BME280;67223;51.102;5.882;2023-02-15T06:18:43;102558.25;;;12.61;62.13
78016;BME280;67223;51.102;5.882;2023-02-15T06:21:08;102556.44;;;12.61;61.91
78016;BME280;67223;51.102;5.882;2023-02-15T06:23:34;102544.84;;;12.61;62.29
78016;BME280;67223;51.102;5.882;2023-02-15T06:25:59;102545.72;;;12.61;62.27
78016;BME280;67223;51.102;5.882;2023-02-15T06:28:24;102546.56;;;12.62;62.69
78016;BME280;67223;51.102;5.882;2023-02-15T06:30:53;102544.75;;;12.62;61.85
78016;BME280;67223;51.102;5.882;2023-02-15T06:33:18;102535.84;;;12.62;62.73
78016;BME280;67223;51.102;5.882;2023-02-15T06:35:44;102546.56;;;12.62;62.57
78016;BME280;67223;51.102;5.882;2023-02-15T06:38:10;102537.66;;;12.61;62.62
78016;BME280;67223;51.102;5.882;2023-02-15T06:40:35;102546.69;;;12.60;62.61
78016;BME280;67223;51.102;5.882;2023-02-15T06:43:01;102546.69;;;12.60;62.59
78016;BME280;67223;51.102;5.882;2023-02-15T06:45:26;102543.22;;;12.58;62.50
78016;BME280;67223;51.102;5.882;2023-02-15T06:47:52;102546.78;;;12.59;62.33
78016;BME280;67223;51.102;5.882;2023-02-15T06:50:18;102548.69;;;12.57;62.33
78016;BME280;67223;51.102;5.882;2023-02-15T06:52:43;102551.34;;;12.57;62.67
78016;BME280;67223;51.102;5.882;2023-02-15T06:55:08;102546.00;;;12.57;63.13
78016;BME280;67223;51.102;5.882;2023-02-15T06:57:34;102543.44;;;12.55;62.65
78016;BME280;67223;51.102;5.882;2023-02-15T06:59:59;102543.44;;;12.55;62.34
78016;BME280;67223;51.102;5.882;2023-02-15T07:02:25;102542.56;;;12.55;62.85
78016;BME280;67223;51.102;5.882;2023-02-15T07:04:50;102541.72;;;12.54;62.54
78016;BME280;67223;51.102;5.882;2023-02-15T07:07:16;102537.28;;;12.53;62.71
78016;BME280;67223;51.102;5.882;2023-02-15T07:09:41;102546.19;;;12.54;62.83
78016;BME280;67223;51.102;5.882;2023-02-15T07:12:07;102545.34;;;12.53;62.82
78016;BME280;67223;51.102;5.882;2023-02-15T07:14:51;102539.97;;;12.53;62.87
78016;BME280;67223;51.102;5.882;2023-02-15T07:17:17;102539.97;;;12.53;62.49
78016;BME280;67223;51.102;5.882;2023-02-15T07:19:42;102536.34;;;12.54;62.61
78016;BME280;67223;51.102;5.882;2023-02-15T07:22:08;102537.22;;;12.55;62.48
78016;BME280;67223;51.102;5.882;2023-02-15T07:24:33;102535.41;;;12.55;62.55
78016;BME280;67223;51.102;5.882;2023-02-15T07:26:59;102535.47;;;12.54;62.81
78016;BME280;67223;51.102;5.882;2023-02-15T07:29:24;102537.22;;;12.55;62.55
78016;BME280;67223;51.102;5.882;2023-02-15T07:31:50;102536.22;;;12.56;62.50
78016;BME280;67223;51.102;5.882;2023-02-15T07:34:15;102531.72;;;12.56;62.36
78016;BME280;67223;51.102;5.882;2023-02-15T07:36:41;102534.31;;;12.58;62.43
78016;BME280;67223;51.102;5.882;2023-02-15T07:39:09;102524.47;;;12.58;62.45
78016;BME280;67223;51.102;5.882;2023-02-15T07:41:34;102530.69;;;12.59;62.31
78016;BME280;67223;51.102;5.882;2023-02-15T07:43:59;102525.34;;;12.59;62.34
78016;BME280;67223;51.102;5.882;2023-02-15T07:46:25;102526.19;;;12.59;61.99
78016;BME280;67223;51.102;5.882;2023-02-15T07:48:50;102522.44;;;12.62;62.38
78016;BME280;67223;51.102;5.882;2023-02-15T07:51:16;102522.44;;;12.62;62.09
78016;BME280;67223;51.102;5.882;2023-02-15T07:53:41;102512.59;;;12.62;62.22
78016;BME280;67223;51.102;5.882;2023-02-15T07:56:09;102512.50;;;12.64;62.01
78016;BME280;67223;51.102;5.882;2023-02-15T07:58:36;102503.50;;;12.65;62.37
78016;BME280;67223;51.102;5.882;2023-02-15T08:03:43;102505.22;;;12.66;62.08
78016;BME280;67223;51.102;5.882;2023-02-15T08:06:08;102506.84;;;12.68;61.86
78016;BME280;67223;51.102;5.882;2023-02-15T08:08:37;102502.34;;;12.69;62.17
78016;BME280;67223;51.102;5.882;2023-02-15T08:11:06;102503.97;;;12.71;61.83
78016;BME280;67223;51.102;5.882;2023-02-15T08:14:07;102506.56;;;12.73;62.08
78016;BME280;67223;51.102;5.882;2023-02-15T08:16:39;102503.88;;;12.73;62.13
78016;BME280;67223;51.102;5.882;2023-02-15T08:19:07;102499.38;;;12.73;61.68
78016;BME280;67223;51.102;5.882;2023-02-15T08:21:34;102498.31;;;12.76;62.04
78016;BME280;67223;51.102;5.882;2023-02-15T08:24:00;102500.03;;;12.77;61.65
78016;BME280;67223;51.102;5.882;2023-02-15T08:26:27;102501.75;;;12.78;61.33
78016;BME280;67223;51.102;5.882;2023-02-15T08:28:52;102500.81;;;12.79;61.94
78016;BME280;67223;51.102;5.882;2023-02-15T08:31:19;102503.38;;;12.80;62.00
78016;BME280;67223;51.102;5.882;2023-02-15T08:33:45;102501.47;;;12.82;61.98
78016;BME280;67223;51.102;5.882;2023-02-15T08:36:13;102504.91;;;12.84;61.46
78016;BME280;67223;51.102;5.882;2023-02-15T08:38:40;102496.66;;;12.87;61.27
78016;BME280;67223;51.102;5.882;2023-02-15T08:41:52;102506.34;;;12.90;61.64
78016;BME280;67223;51.102;5.882;2023-02-15T08:44:11;102501.81;;;12.90;61.55
78016;BME280;67223;51.102;5.882;2023-02-15T08:46:39;102505.28;;;12.92;61.67
78016;BME280;67223;51.102;5.882;2023-02-15T08:49:05;102503.47;;;12.93;61.15
78016;BME280;67223;51.102;5.882;2023-02-15T08:51:34;102500.69;;;12.94;61.45
78016;BME280;67223;51.102;5.882;2023-02-15T08:54:05;102498.75;;;12.97;61.13
78016;BME280;67223;51.102;5.882;2023-02-15T08:56:36;102506.69;;;12.98;60.91
78016;BME280;67223;51.102;5.882;2023-02-15T08:59:03;102504.88;;;12.99;61.10
78016;BME280;67223;51.102;5.882;2023-02-15T09:01:31;102500.16;;;13.02;61.16
78016;BME280;67223;51.102;5.882;2023-02-15T09:04:03;102497.41;;;13.04;60.95
78016;BME280;67223;51.102;5.882;2023-02-15T09:06:34;102491.81;;;13.07;60.99
78016;BME280;67223;51.102;5.882;2023-02-15T09:09:00;102491.63;;;13.10;60.94
78016;BME280;67223;51.102;5.882;2023-02-15T09:11:30;102484.38;;;13.12;61.09
78016;BME280;67223;51.102;5.882;2023-02-15T09:13:58;102480.72;;;13.13;60.52
78016;BME280;67223;51.102;5.882;2023-02-15T09:16:26;102476.88;;;13.17;60.71
78016;BME280;67223;51.102;5.882;2023-02-15T09:18:51;102474.97;;;13.19;60.87
78016;BME280;67223;51.102;5.882;2023-02-15T09:21:19;102475.63;;;13.22;60.89
78016;BME280;67223;51.102;5.882;2023-02-15T09:23:47;102475.41;;;13.25;60.59
78016;BME280;67223;51.102;5.882;2023-02-15T09:26:18;102474.34;;;13.28;60.79
78016;BME280;67223;51.102;5.882;2023-02-15T09:28:44;102480.34;;;13.31;60.41
78016;BME280;67223;51.102;5.882;2023-02-15T09:31:18;102476.72;;;13.32;60.65
78016;BME280;67223;51.102;5.882;2023-02-15T09:33:45;102471.03;;;13.37;60.57
78016;BME280;67223;51.102;5.882;2023-02-15T09:36:17;102479.75;;;13.41;60.56
78016;BME280;67223;51.102;5.882;2023-02-15T09:38:47;102482.09;;;13.45;60.33
78016;BME280;67223;51.102;5.882;2023-02-15T10:08:54;102476.75;;;13.85;59.63
78016;BME280;67223;51.102;5.882;2023-02-15T10:25:37;102478.88;;;14.05;59.38
78016;BME280;67223;51.102;5.882;2023-02-15T10:28:11;102487.59;;;14.08;59.17
78016;BME280;67223;51.102;5.882;2023-02-15T10:30:44;102486.50;;;14.11;58.79
78016;BME280;67223;51.102;5.882;2023-02-15T10:33:42;102488.00;;;14.15;59.19
78016;BME280;67223;51.102;5.882;2023-02-15T10:41:37;102482.97;;;14.23;58.65
78016;BME280;67223;51.102;5.882;2023-02-15T10:44:33;102475.53;;;14.27;58.49
78016;BME280;67223;51.102;5.882;2023-02-15T10:50:16;102479.63;;;14.32;58.48
78016;BME280;67223;51.102;5.882;2023-02-15T10:55:24;102472.13;;;14.37;58.30
78016;BME280;67223;51.102;5.882;2023-02-15T11:00:59;102468.88;;;14.45;58.06
78016;BME280;67223;51.102;5.882;2023-02-15T11:03:39;102466.97;;;14.47;58.19
78016;BME280;67223;51.102;5.882;2023-02-15T11:06:11;102462.34;;;14.49;58.19
78016;BME280;67223;51.102;5.882;2023-02-15T11:08:54;102448.78;;;14.50;57.96
78016;BME280;67223;51.102;5.882;2023-02-15T11:11:29;102456.63;;;14.53;58.30
78016;BME280;67223;51.102;5.882;2023-02-15T11:14:03;102450.28;;;14.54;57.55
78016;BME280;67223;51.102;5.882;2023-02-15T11:16:37;102450.16;;;14.56;58.03
78016;BME280;67223;51.102;5.882;2023-02-15T11:19:24;102443.72;;;14.58;58.12
78016;BME280;67223;51.102;5.882;2023-02-15T11:21:57;102441.75;;;14.60;57.71
78016;BME280;67223;51.102;5.882;2023-02-15T11:24:27;102442.50;;;14.62;57.75
78016;BME280;67223;51.102;5.882;2023-02-15T11:27:03;102435.94;;;14.67;57.91
78016;BME280;67223;51.102;5.882;2023-02-15T11:29:36;102435.69;;;14.70;57.44
78016;BME280;67223;51.102;5.882;2023-02-15T11:32:14;102430.13;;;14.73;56.85
78016;BME280;67223;51.102;5.882;2023-02-15T11:34:54;102427.19;;;14.76;57.61
78016;BME280;67223;51.102;5.882;2023-02-15T11:37:29;102425.25;;;14.78;57.25
78016;BME280;67223;51.102;5.882;2023-02-15T11:39:56;102426.84;;;14.80;56.74
78016;BME280;67223;51.102;5.882;2023-02-15T11:42:23;102415.03;;;14.83;57.11
78016;BME280;67223;51.102;5.882;2023-02-15T11:45:10;102409.41;;;14.86;57.31
78016;BME280;67223;51.102;5.882;2023-02-15T11:47:42;102410.16;;;14.88;56.79
78016;BME280;67223;51.102;5.882;2023-02-15T11:50:16;102407.22;;;14.91;56.28
78016;BME280;67223;51.102;5.882;2023-02-15T11:52:43;102403.56;;;14.92;56.37
78016;BME280;67223;51.102;5.882;2023-02-15T11:55:14;102393.56;;;14.94;56.63
78016;BME280;67223;51.102;5.882;2023-02-15T11:57:50;102388.91;;;14.96;55.81
78016;BME280;67223;51.102;5.882;2023-02-15T12:00:29;102391.50;;;14.97;56.00
78016;BME280;67223;51.102;5.882;2023-02-15T12:02:57;102393.22;;;14.98;56.30
78016;BME280;67223;51.102;5.882;2023-02-15T12:05:24;102390.53;;;14.98;56.02
78016;BME280;67223;51.102;5.882;2023-02-15T12:07:55;102390.38;;;15.00;55.82
78016;BME280;67223;51.102;5.882;2023-02-15T12:10:28;102382.22;;;15.01;55.48
78016;BME280;67223;51.102;5.882;2023-02-15T12:13:14;102387.34;;;15.04;55.49
78016;BME280;67223;51.102;5.882;2023-02-15T12:15:48;102384.56;;;15.06;54.62
78016;BME280;67223;51.102;5.882;2023-02-15T12:20:43;102374.41;;;15.09;54.51
78016;BME280;67223;51.102;5.882;2023-02-15T12:23:14;102361.72;;;15.12;54.97
78016;BME280;67223;51.102;5.882;2023-02-15T12:25:54;102364.16;;;15.15;55.01
78016;BME280;67223;51.102;5.882;2023-02-15T12:28:32;102358.56;;;15.18;54.62
78016;BME280;67223;51.102;5.882;2023-02-15T12:31:00;102357.44;;;15.20;54.71
78016;BME280;67223;51.102;5.882;2023-02-15T12:33:34;102359.91;;;15.23;54.13
78016;BME280;67223;51.102;5.882;2023-02-15T12:36:12;102361.59;;;15.24;54.04
78016;BME280;67223;51.102;5.882;2023-02-15T12:38:40;102357.94;;;15.25;54.26
78016;BME280;67223;51.102;5.882;2023-02-15T12:41:25;102351.50;;;15.28;53.94
78016;BME280;67223;51.102;5.882;2023-02-15T12:44:19;102347.81;;;15.29;53.49
78016;BME280;67223;51.102;5.882;2023-02-15T12:49:23;102344.88;;;15.32;53.48
78016;BME280;67223;51.102;5.882;2023-02-15T12:52:00;102340.25;;;15.34;53.36
78016;BME280;67223;51.102;5.882;2023-02-15T12:54:43;102344.41;;;15.38;53.54
78016;BME280;67223;51.102;5.882;2023-02-15T12:57:31;102333.50;;;15.39;53.90
78016;BME280;67223;51.102;5.882;2023-02-15T13:00:00;102328.97;;;15.40;53.94
78016;BME280;67223;51.102;5.882;2023-02-15T13:04:55;102327.66;;;15.45;53.19
78016;BME280;67223;51.102;5.882;2023-02-15T13:07:22;102326.56;;;15.48;53.74
78016;BME280;67223;51.102;5.882;2023-02-15T13:09:49;102330.13;;;15.48;52.78
78016;BME280;67223;51.102;5.882;2023-02-15T13:12:20;102326.34;;;15.51;52.40
78016;BME280;67223;51.102;5.882;2023-02-15T13:14:50;102324.41;;;15.53;53.27
78016;BME280;67223;51.102;5.882;2023-02-15T13:17:18;102317.91;;;15.56;52.82
78016;BME280;67223;51.102;5.882;2023-02-15T13:19:51;102313.28;;;15.58;52.64
78016;BME280;67223;51.102;5.882;2023-02-15T13:22:21;102317.69;;;15.59;52.79
78016;BME280;67223;51.102;5.882;2023-02-15T13:24:53;102309.59;;;15.59;53.16
78016;BME280;67223;51.102;5.882;2023-02-15T13:27:24;102309.47;;;15.60;53.06
78016;BME280;67223;51.102;5.882;2023-02-15T13:29:59;102304.06;;;15.60;52.59
78016;BME280;67223;51.102;5.882;2023-02-15T13:32:34;102305.69;;;15.63;52.49
78016;BME280;67223;51.102;5.882;2023-02-15T13:35:03;102301.88;;;15.65;52.72
78016;BME280;67223;51.102;5.882;2023-02-15T13:40:19;102299.56;;;15.72;52.30
78016;BME280;67223;51.102;5.882;2023-02-15T13:43:00;102302.25;;;15.72;52.17
78016;BME280;67223;51.102;5.882;2023-02-15T13:45:51;102286.69;;;15.75;52.25
78016;BME280;67223;51.102;5.882;2023-02-15T13:51:36;102286.59;;;15.77;51.86
78016;BME280;67223;51.102;5.882;2023-02-15T13:54:09;102275.06;;;15.75;52.18
78016;BME280;67223;51.102;5.882;2023-02-15T13:56:51;102271.41;;;15.76;52.23
78016;BME280;67223;51.102;5.882;2023-02-15T14:11:01;102289.88;;;15.80;51.65
78016;BME280;67223;51.102;5.882;2023-02-15T14:13:50;102290.53;;;15.84;51.24
78016;BME280;67223;51.102;5.882;2023-02-15T14:22:01;102291.97;;;15.88;50.89
78016;BME280;67223;51.102;5.882;2023-02-15T14:24:37;102281.19;;;15.88;51.53
78016;BME280;67223;51.102;5.882;2023-02-15T14:30:02;102276.53;;;15.90;51.14
78016;BME280;67223;51.102;5.882;2023-02-15T14:32:40;102277.97;;;15.94;50.94
78016;BME280;67223;51.102;5.882;2023-02-15T14:35:20;102273.34;;;15.96;51.01
78016;BME280;67223;51.102;5.882;2023-02-15T14:37:55;102269.66;;;15.97;50.91
78016;BME280;67223;51.102;5.882;2023-02-15T14:49:12;102266.72;;;16.00;50.95
78016;BME280;67223;51.102;5.882;2023-02-15T14:59:49;102260.84;;;16.06;50.28
78016;BME280;67223;51.102;5.882;2023-02-15T15:02:23;102269.66;;;16.08;50.85
78016;BME280;67223;51.102;5.882;2023-02-15T15:07:37;102271.72;;;16.16;50.54
78016;BME280;67223;51.102;5.882;2023-02-15T15:10:33;102274.41;;;16.16;50.81
78016;BME280;67223;51.102;5.882;2023-02-15T15:18:47;102280.28;;;16.10;49.82
78016;BME280;67223;51.102;5.882;2023-02-15T15:49:36;102293.22;;;15.84;50.14
78016;BME280;67223;51.102;5.882;2023-02-15T15:52:14;102292.56;;;15.80;49.92